Terminal Aerodrome Forecast
Issued by NWS

Current Version | Previous Version | Text Only | Print | Product List | Glossary Off
Versions: 1 2 3 4 5 6 7 8 9 10 11 12 13 14 15 16 17 18 19 20

000
FTUS41 KILN 292200 AAA
TAFLUK
TAF AMD
KLUK 292239Z 2923/3018 18006KT P6SM VCSH SCT060 BKN200
      TEMPO 2923/2924 5SM -TSRA BKN040CB
     FM300100 00000KT P6SM SCT050 BKN200
     FM300600 00000KT P6SM SCT200
      TEMPO 3007/3010 5SM BR
     FM301200 19005KT P6SM BKN060=

USA.gov is the U.S. government's official web portal to all federal, state and local government web resources and services.